Time;durP1;ratioP1;P1;durP2;ratioP2;P2;SDS_P1;SDS_P2;PMS_P1;PMS_P2;Temp;Humidity;BMP_temperature;BMP_pressure;BME280_temperature;BME280_humidity;BME280_pressure;Samples;Min_cycle;Max_cycle;Signal;HPM_P1;HPM_P2
2021/12/08 00:00:13;;;;;;;8.80;1.85;;;;;;;;;;5075770;28;20193;-78
2021/12/08 00:02:39;;;;;;;4.75;1.70;;;;;;;;;;5058278;28;20585;-80
2021/12/08 00:05:06;;;;;;;1.73;1.40;;;;;;;;;;5076268;28;20545;-79
2021/12/08 00:07:33;;;;;;;4.38;1.80;;;;;;;;;;5076436;28;20183;-78
2021/12/08 00:10:16;;;;;;;2.22;1.63;;;;;;;;;;5057768;28;20180;-78
2021/12/08 00:15:28;;;;;;;2.83;1.52;;;;;;;;;;5076204;28;20264;-78
2021/12/08 00:17:56;;;;;;;2.15;1.55;;;;;;;;;;5075930;28;20198;-79
2021/12/08 00:20:22;;;;;;;2.60;1.40;;;;;;;;;;5075658;28;20562;-79
2021/12/08 00:22:48;;;;;;;6.93;1.70;;;;;;;;;;5075956;28;20165;-78
2021/12/08 00:25:14;;;;;;;2.00;1.30;;;;;;;;;;5075848;28;20192;-79
2021/12/08 00:27:40;;;;;;;2.40;1.30;;;;;;;;;;5057829;28;20178;-77
2021/12/08 00:30:07;;;;;;;5.43;1.50;;;;;;;;;;5057460;28;20173;-77
2021/12/08 00:32:35;;;;;;;2.47;1.27;;;;;;;;;;5075921;28;20188;-78
2021/12/08 00:35:01;;;;;;;2.13;1.38;;;;;;;;;;5075659;28;20204;-78
2021/12/08 00:37:28;;;;;;;5.65;1.77;;;;;;;;;;5075618;28;20203;-76
2021/12/08 00:39:54;;;;;;;2.67;1.70;;;;;;;;;;5075115;28;20550;-77
2021/12/08 00:42:20;;;;;;;4.53;1.20;;;;;;;;;;5075425;28;20169;-79
2021/12/08 00:44:46;;;;;;;1.20;1.10;;;;;;;;;;5075541;28;20641;-80
2021/12/08 00:47:14;;;;;;;4.40;1.40;;;;;;;;;;5075612;28;20234;-80
2021/12/08 00:49:40;;;;;;;1.98;1.13;;;;;;;;;;5075115;28;20184;-77
2021/12/08 00:52:07;;;;;;;4.95;1.15;;;;;;;;;;5075036;28;20728;-78
2021/12/08 00:54:34;;;;;;;2.17;1.33;;;;;;;;;;5075196;28;20189;-77
2021/12/08 00:57:00;;;;;;;2.28;1.50;;;;;;;;;;5075122;28;20749;-78
2021/12/08 00:59:26;;;;;;;1.88;1.08;;;;;;;;;;5074785;28;20201;-78
2021/12/08 01:01:52;;;;;;;1.48;1.20;;;;;;;;;;5075289;28;20189;-79
2021/12/08 01:04:18;;;;;;;1.45;1.35;;;;;;;;;;5074945;28;20506;-79
2021/12/08 01:06:44;;;;;;;1.95;0.90;;;;;;;;;;5073926;28;20181;-79
2021/12/08 01:09:12;;;;;;;1.23;0.88;;;;;;;;;;5075046;28;20682;-79
2021/12/08 01:11:38;;;;;;;3.88;1.70;;;;;;;;;;5074785;28;20257;-77
2021/12/08 01:14:04;;;;;;;1.30;0.80;;;;;;;;;;5074846;28;20621;-79
2021/12/08 01:16:30;;;;;;;2.25;1.00;;;;;;;;;;5074696;28;20210;-78
2021/12/08 01:18:56;;;;;;;1.77;0.80;;;;;;;;;;5057065;28;20234;-79
2021/12/08 01:21:22;;;;;;;1.50;1.40;;;;;;;;;;5074307;28;20189;-80
2021/12/08 01:23:49;;;;;;;1.23;1.00;;;;;;;;;;5074818;28;20625;-77
2021/12/08 01:26:15;;;;;;;3.00;1.23;;;;;;;;;;5074574;28;20762;-78
2021/12/08 01:28:41;;;;;;;2.10;1.05;;;;;;;;;;5074704;28;20668;-77
2021/12/08 01:31:07;;;;;;;0.82;0.77;;;;;;;;;;5074102;28;20204;-78
2021/12/08 01:33:35;;;;;;;1.95;1.20;;;;;;;;;;5074470;28;20177;-78
2021/12/08 01:36:02;;;;;;;2.70;1.00;;;;;;;;;;5074472;28;20196;-80
2021/12/08 01:38:28;;;;;;;1.63;0.88;;;;;;;;;;5056384;28;20288;-79
2021/12/08 01:40:54;;;;;;;1.92;1.00;;;;;;;;;;5073950;28;20200;-79
2021/12/08 01:43:26;;;;;;;1.50;1.17;;;;;;;;;;5074300;28;20165;-79
2021/12/08 01:46:00;;;;;;;1.33;1.00;;;;;;;;;;5056354;28;20176;-80
2021/12/08 01:48:27;;;;;;;1.10;0.82;;;;;;;;;;5074149;28;20181;-78
2021/12/08 01:50:54;;;;;;;1.75;1.25;;;;;;;;;;5073752;28;20246;-78
2021/12/08 01:53:20;;;;;;;5.18;1.17;;;;;;;;;;5074049;28;20259;-79
2021/12/08 01:55:46;;;;;;;2.15;0.98;;;;;;;;;;5073967;28;20205;-80
2021/12/08 01:58:13;;;;;;;1.45;1.13;;;;;;;;;;5073933;28;20172;-78
2021/12/08 02:00:48;;;;;;;1.05;0.90;;;;;;;;;;5073316;28;20272;-79
2021/12/08 02:03:15;;;;;;;1.25;0.70;;;;;;;;;;5073926;28;20172;-78
2021/12/08 02:05:41;;;;;;;1.00;0.90;;;;;;;;;;5073757;28;20181;-78
2021/12/08 02:08:08;;;;;;;1.00;0.90;;;;;;;;;;5073945;28;20184;-79
2021/12/08 02:10:36;;;;;;;2.00;1.13;;;;;;;;;;5055154;28;20229;-80
2021/12/08 02:13:02;;;;;;;1.10;1.00;;;;;;;;;;5073747;28;20177;-78
2021/12/08 02:15:28;;;;;;;1.30;0.77;;;;;;;;;;5073589;28;20204;-80
2021/12/08 02:17:55;;;;;;;1.30;0.80;;;;;;;;;;5073530;28;20183;-77
2021/12/08 02:20:23;;;;;;;0.85;0.80;;;;;;;;;;5073445;28;20192;-79
2021/12/08 02:22:50;;;;;;;1.02;0.90;;;;;;;;;;5073498;28;20248;-80
2021/12/08 02:25:18;;;;;;;1.10;1.00;;;;;;;;;;5073625;28;20180;-80
2021/12/08 02:27:44;;;;;;;2.20;1.02;;;;;;;;;;5073516;28;20180;-80
2021/12/08 02:30:19;;;;;;;1.25;0.90;;;;;;;;;;5073135;28;20192;-78
2021/12/08 02:46:45;;;;;;;2.20;1.05;;;;;;;;;;5073598;28;20200;-80
2021/12/08 02:49:11;;;;;;;1.27;0.80;;;;;;;;;;5073165;28;20562;-81
2021/12/08 02:51:37;;;;;;;1.35;0.93;;;;;;;;;;5073171;28;20204;-79
2021/12/08 02:54:04;;;;;;;1.95;1.30;;;;;;;;;;5073104;28;20174;-79
2021/12/08 02:56:30;;;;;;;1.80;0.95;;;;;;;;;;5073114;28;20207;-80
2021/12/08 02:58:56;;;;;;;1.05;0.90;;;;;;;;;;5072908;28;20698;-81
2021/12/08 03:01:23;;;;;;;3.17;1.40;;;;;;;;;;5072764;28;20679;-78
2021/12/08 03:03:49;;;;;;;1.38;1.00;;;;;;;;;;5073280;28;20264;-79
2021/12/08 03:06:15;;;;;;;1.27;0.93;;;;;;;;;;5073293;28;20172;-80
2021/12/08 03:08:41;;;;;;;3.00;1.33;;;;;;;;;;5055322;28;20191;-79
2021/12/08 03:11:07;;;;;;;2.35;1.05;;;;;;;;;;5072445;28;20273;-80
2021/12/08 03:13:35;;;;;;;0.95;0.90;;;;;;;;;;5073109;28;20625;-80
2021/12/08 03:16:01;;;;;;;2.10;1.10;;;;;;;;;;5073010;28;20538;-78
2021/12/08 03:18:33;;;;;;;2.20;1.10;;;;;;;;;;5054973;28;20204;-78
2021/12/08 03:21:00;;;;;;;1.02;0.93;;;;;;;;;;5072506;28;20219;-81
2021/12/08 03:23:33;;;;;;;1.08;0.93;;;;;;;;;;5072716;28;20223;-80
2021/12/08 03:26:02;;;;;;;2.15;1.00;;;;;;;;;;5073259;28;20214;-81
2021/12/08 03:28:32;;;;;;;0.88;0.80;;;;;;;;;;5072946;28;20540;-81
2021/12/08 03:31:07;;;;;;;0.95;0.85;;;;;;;;;;5075138;28;20323;-81
2021/12/08 03:33:33;;;;;;;2.08;0.93;;;;;;;;;;5059065;28;20199;-81
2021/12/08 03:35:59;;;;;;;2.40;1.05;;;;;;;;;;5076808;28;20211;-80
2021/12/08 03:38:25;;;;;;;1.38;1.00;;;;;;;;;;5076921;28;20511;-79
2021/12/08 03:40:52;;;;;;;1.50;1.15;;;;;;;;;;5076426;28;20202;-79
2021/12/08 03:43:18;;;;;;;1.52;1.10;;;;;;;;;;5076581;28;20176;-80
2021/12/08 03:45:48;;;;;;;1.75;1.10;;;;;;;;;;5076565;28;20552;-81
2021/12/08 03:48:21;;;;;;;2.17;1.10;;;;;;;;;;5076469;28;20173;-80
2021/12/08 03:50:48;;;;;;;1.45;1.05;;;;;;;;;;5076173;28;20668;-79
2021/12/08 03:53:16;;;;;;;2.30;0.90;;;;;;;;;;5058388;28;20242;-81
2021/12/08 03:55:43;;;;;;;2.40;1.27;;;;;;;;;;5076220;28;20284;-78
2021/12/08 03:58:10;;;;;;;1.33;1.13;;;;;;;;;;5076236;28;20222;-81
2021/12/08 04:00:36;;;;;;;1.80;1.40;;;;;;;;;;5058403;28;20189;-81
2021/12/08 04:03:04;;;;;;;1.55;1.25;;;;;;;;;;5076374;28;20169;-78
2021/12/08 04:05:50;;;;;;;3.67;1.50;;;;;;;;;;5076139;28;20173;-80
2021/12/08 04:08:20;;;;;;;1.50;1.33;;;;;;;;;;5076309;28;20540;-78
2021/12/08 04:10:48;;;;;;;5.05;1.50;;;;;;;;;;5075165;28;20257;-79
2021/12/08 04:13:14;;;;;;;1.90;1.42;;;;;;;;;;5074856;28;20168;-80
2021/12/08 04:15:40;;;;;;;1.70;1.30;;;;;;;;;;5074591;28;20287;-79
2021/12/08 04:18:06;;;;;;;2.15;1.58;;;;;;;;;;5075038;28;20293;-79
2021/12/08 04:20:38;;;;;;;2.35;1.35;;;;;;;;;;5074490;28;20197;-78
2021/12/08 04:23:07;;;;;;;3.13;1.13;;;;;;;;;;5056653;28;20176;-80
2021/12/08 04:25:34;;;;;;;2.10;1.10;;;;;;;;;;5074740;28;20171;-79
2021/12/08 04:28:01;;;;;;;3.03;1.25;;;;;;;;;;5074731;28;20185;-81
2021/12/08 04:30:32;;;;;;;6.85;2.08;;;;;;;;;;5056610;28;20200;-79
2021/12/08 04:32:58;;;;;;;6.15;2.55;;;;;;;;;;5074382;28;20233;-81
2021/12/08 04:35:25;;;;;;;3.20;1.40;;;;;;;;;;5074540;28;20491;-78
2021/12/08 04:37:54;;;;;;;2.83;1.30;;;;;;;;;;5074424;28;20535;-78
2021/12/08 04:40:50;;;;;;;7.78;1.60;;;;;;;;;;5055898;28;20196;-79
2021/12/08 04:46:02;;;;;;;3.72;1.17;;;;;;;;;;5074482;28;20181;-80
2021/12/08 05:07:01;;;;;;;2.47;1.30;;;;;;;;;;5074463;28;20216;-80
2021/12/08 05:09:30;;;;;;;4.05;1.83;;;;;;;;;;5073617;28;20656;-78
2021/12/08 05:12:02;;;;;;;3.22;1.58;;;;;;;;;;5036663;28;1086537;-79
2021/12/08 05:14:31;;;;;;;4.20;1.80;;;;;;;;;;5075149;28;20554;-82
2021/12/08 05:17:04;;;;;;;3.72;1.50;;;;;;;;;;5074841;28;20177;-78
2021/12/08 05:19:31;;;;;;;4.50;1.65;;;;;;;;;;5074586;28;20171;-79
2021/12/08 05:21:59;;;;;;;2.42;2.17;;;;;;;;;;5056910;28;20196;-81
2021/12/08 05:24:29;;;;;;;5.63;1.73;;;;;;;;;;5074741;28;20173;-80
2021/12/08 05:26:58;;;;;;;2.83;1.40;;;;;;;;;;5056652;28;20176;-78
2021/12/08 05:29:26;;;;;;;3.53;1.35;;;;;;;;;;5074546;28;20193;-79
2021/12/08 05:31:52;;;;;;;4.00;1.83;;;;;;;;;;5074869;28;20203;-77
2021/12/08 05:34:19;;;;;;;2.95;1.50;;;;;;;;;;5074698;28;20170;-79
2021/12/08 05:36:45;;;;;;;8.73;1.80;;;;;;;;;;5074540;28;20572;-80
2021/12/08 05:39:19;;;;;;;5.25;1.90;;;;;;;;;;5074257;28;20181;-80
2021/12/08 05:41:46;;;;;;;5.53;1.60;;;;;;;;;;5074401;28;20759;-81
2021/12/08 05:44:12;;;;;;;4.63;1.65;;;;;;;;;;5074323;28;20499;-79
2021/12/08 05:46:42;;;;;;;6.05;1.80;;;;;;;;;;5074332;28;20272;-81
2021/12/08 05:49:08;;;;;;;4.53;2.00;;;;;;;;;;5074089;28;20516;-79
2021/12/08 05:51:35;;;;;;;4.28;2.20;;;;;;;;;;5073862;28;20196;-80
2021/12/08 05:54:05;;;;;;;3.38;1.85;;;;;;;;;;5055491;28;20180;-78
2021/12/08 05:56:31;;;;;;;9.63;2.42;;;;;;;;;;5073983;28;20228;-80
2021/12/08 05:59:00;;;;;;;5.70;2.58;;;;;;;;;;5056084;28;20239;-78
2021/12/08 06:01:32;;;;;;;10.48;2.15;;;;;;;;;;5073623;28;20219;-80
2021/12/08 06:03:59;;;;;;;3.97;1.85;;;;;;;;;;5073958;28;20173;-80
2021/12/08 06:06:26;;;;;;;3.78;1.98;;;;;;;;;;5055847;28;20181;-81
2021/12/08 06:08:52;;;;;;;5.15;2.03;;;;;;;;;;5056167;28;20208;-80
2021/12/08 06:11:18;;;;;;;3.17;1.90;;;;;;;;;;5073245;28;20212;-79
2021/12/08 06:13:46;;;;;;;4.30;2.00;;;;;;;;;;5073871;28;20559;-81
2021/12/08 06:16:13;;;;;;;5.97;1.80;;;;;;;;;;5073670;28;20196;-80
2021/12/08 06:18:40;;;;;;;8.15;1.60;;;;;;;;;;5073551;28;20180;-79
2021/12/08 06:21:14;;;;;;;6.13;2.00;;;;;;;;;;5073297;28;20215;-80
2021/12/08 06:23:40;;;;;;;3.15;1.70;;;;;;;;;;5073745;28;20211;-78
2021/12/08 06:26:08;;;;;;;8.30;1.75;;;;;;;;;;5073776;28;20177;-80
2021/12/08 06:28:34;;;;;;;6.22;2.20;;;;;;;;;;5073410;28;20539;-80
2021/12/08 06:31:01;;;;;;;3.63;1.45;;;;;;;;;;5073245;28;20656;-81
2021/12/08 06:33:27;;;;;;;6.82;2.17;;;;;;;;;;5073576;28;20264;-80
2021/12/08 06:35:57;;;;;;;6.32;1.70;;;;;;;;;;5073334;28;20201;-79
2021/12/08 06:38:24;;;;;;;7.10;3.83;;;;;;;;;;5073446;28;20192;-80
2021/12/08 06:40:53;;;;;;;9.63;2.15;;;;;;;;;;5072907;28;20195;-79
2021/12/08 06:43:20;;;;;;;8.38;2.10;;;;;;;;;;5073256;28;20295;-79
2021/12/08 06:45:48;;;;;;;6.50;1.88;;;;;;;;;;5073376;28;20267;-79
2021/12/08 06:48:16;;;;;;;5.03;2.20;;;;;;;;;;5073408;28;20176;-80
2021/12/08 06:50:49;;;;;;;4.60;1.65;;;;;;;;;;5072831;28;20191;-79
2021/12/08 06:53:15;;;;;;;5.35;1.60;;;;;;;;;;5073255;28;20590;-78
2021/12/08 06:55:53;;;;;;;6.30;1.65;;;;;;;;;;5073235;28;20203;-80
2021/12/08 06:58:23;;;;;;;4.72;1.30;;;;;;;;;;5073151;28;20226;-80
2021/12/08 07:01:14;;;;;;;5.53;1.90;;;;;;;;;;5072623;28;20223;-79
2021/12/08 07:09:04;;;;;;;9.18;2.75;;;;;;;;;;5072970;28;20272;-78
2021/12/08 07:11:30;;;;;;;2.92;1.80;;;;;;;;;;5072560;28;20213;-78
2021/12/08 07:13:56;;;;;;;4.82;2.13;;;;;;;;;;5073321;28;20255;-80
2021/12/08 07:16:24;;;;;;;5.13;2.08;;;;;;;;;;5073200;28;20203;-81
2021/12/08 07:18:54;;;;;;;3.92;1.88;;;;;;;;;;5073000;28;20245;-80
2021/12/08 07:21:25;;;;;;;7.10;1.77;;;;;;;;;;5072690;28;20621;-79
2021/12/08 07:23:54;;;;;;;4.80;2.30;;;;;;;;;;5072932;28;20569;-80
2021/12/08 07:26:22;;;;;;;7.68;1.50;;;;;;;;;;5072868;28;20192;-78
2021/12/08 07:28:49;;;;;;;5.68;1.88;;;;;;;;;;5072884;28;20188;-81
2021/12/08 07:31:27;;;;;;;6.28;1.55;;;;;;;;;;5072379;28;20193;-80
2021/12/08 07:33:53;;;;;;;5.85;1.77;;;;;;;;;;5072832;28;20180;-80
2021/12/08 07:36:23;;;;;;;3.92;1.92;;;;;;;;;;5072658;28;20200;-79
2021/12/08 07:38:51;;;;;;;7.07;1.48;;;;;;;;;;5072799;28;20216;-81
2021/12/08 07:41:20;;;;;;;5.22;1.40;;;;;;;;;;5072414;28;20191;-78
2021/12/08 07:43:49;;;;;;;6.93;2.00;;;;;;;;;;5055022;28;20204;-81
2021/12/08 07:46:19;;;;;;;9.85;1.50;;;;;;;;;;5072893;28;20177;-79
2021/12/08 07:48:47;;;;;;;6.60;2.10;;;;;;;;;;5072877;28;20216;-80
2021/12/08 07:51:16;;;;;;;6.50;1.90;;;;;;;;;;5072198;28;20203;-81
2021/12/08 07:53:42;;;;;;;1.55;1.30;;;;;;;;;;5072609;28;20203;-78
2021/12/08 07:56:10;;;;;;;4.68;1.67;;;;;;;;;;5072571;28;20202;-79
2021/12/08 07:58:38;;;;;;;2.42;1.58;;;;;;;;;;5072736;28;20177;-80
2021/12/08 08:01:09;;;;;;;7.10;1.70;;;;;;;;;;5072044;28;20200;-80
2021/12/08 08:03:36;;;;;;;9.05;1.65;;;;;;;;;;5072475;28;20173;-79
2021/12/08 08:06:04;;;;;;;4.55;1.35;;;;;;;;;;5072640;28;20181;-79
2021/12/08 08:08:33;;;;;;;4.00;1.80;;;;;;;;;;5072551;28;20183;-80
2021/12/08 08:11:02;;;;;;;2.90;1.60;;;;;;;;;;5071840;28;20234;-78
2021/12/08 08:13:28;;;;;;;5.82;2.15;;;;;;;;;;5072473;28;20181;-78
2021/12/08 08:16:04;;;;;;;3.75;1.45;;;;;;;;;;5073341;28;20205;-80
2021/12/08 08:18:31;;;;;;;5.55;1.48;;;;;;;;;;5076269;28;20172;-81
2021/12/08 08:20:59;;;;;;;8.13;1.50;;;;;;;;;;5041182;28;20223;-78
2021/12/08 08:23:27;;;;;;;8.40;2.55;;;;;;;;;;5069742;28;20538;-81
2021/12/08 08:25:54;;;;;;;4.65;1.95;;;;;;;;;;5065572;28;20169;-79
2021/12/08 08:28:20;;;;;;;2.92;1.60;;;;;;;;;;5069278;28;20173;-81
2021/12/08 08:30:48;;;;;;;9.85;2.45;;;;;;;;;;5061112;28;20229;-78
2021/12/08 08:33:15;;;;;;;10.98;1.90;;;;;;;;;;5062985;28;20176;-78
2021/12/08 08:35:47;;;;;;;6.00;2.15;;;;;;;;;;5065645;28;20331;-76
2021/12/08 08:38:15;;;;;;;5.93;2.08;;;;;;;;;;5075707;28;20166;-76
2021/12/08 08:40:44;;;;;;;13.43;2.72;;;;;;;;;;5075437;28;20218;-77
2021/12/08 08:43:11;;;;;;;9.63;2.20;;;;;;;;;;5075614;28;20213;-79
2021/12/08 08:45:40;;;;;;;3.75;2.20;;;;;;;;;;5075452;28;20262;-79
2021/12/08 08:48:08;;;;;;;7.43;1.63;;;;;;;;;;5075423;28;20169;-79
2021/12/08 08:50:40;;;;;;;9.32;2.22;;;;;;;;;;5075105;28;20204;-79
2021/12/08 08:53:08;;;;;;;7.18;2.20;;;;;;;;;;5075371;28;20181;-77
2021/12/08 08:55:37;;;;;;;11.00;3.08;;;;;;;;;;5075156;28;20200;-77
2021/12/08 08:58:04;;;;;;;15.20;2.10;;;;;;;;;;5075177;28;20173;-78
2021/12/08 09:00:34;;;;;;;10.05;2.33;;;;;;;;;;5074801;28;20195;-77
2021/12/08 09:03:02;;;;;;;3.75;1.75;;;;;;;;;;5073916;28;20188;-80
2021/12/08 09:05:31;;;;;;;8.65;2.40;;;;;;;;;;5074994;28;20186;-78
2021/12/08 09:07:59;;;;;;;5.00;1.70;;;;;;;;;;5074901;28;20166;-78
2021/12/08 09:10:27;;;;;;;6.18;2.00;;;;;;;;;;5074508;28;20228;-77
2021/12/08 09:12:58;;;;;;;4.57;2.20;;;;;;;;;;5075129;28;20183;-78
2021/12/08 09:15:29;;;;;;;10.75;2.90;;;;;;;;;;5065782;28;20246;-79
2021/12/08 09:17:58;;;;;;;10.52;3.50;;;;;;;;;;5055072;28;20197;-78
2021/12/08 09:20:31;;;;;;;8.23;3.15;;;;;;;;;;5054752;28;20197;-77
2021/12/08 09:23:00;;;;;;;6.90;1.65;;;;;;;;;;5036987;28;20183;-77
2021/12/08 09:25:30;;;;;;;6.13;1.88;;;;;;;;;;5054888;28;20185;-79
2021/12/08 09:27:58;;;;;;;7.80;2.05;;;;;;;;;;5053653;28;20181;-78
2021/12/08 09:30:33;;;;;;;8.40;2.85;;;;;;;;;;5054251;28;20217;-79
2021/12/08 09:33:02;;;;;;;4.40;2.10;;;;;;;;;;5054614;28;20188;-77
2021/12/08 09:35:46;;;;;;;6.70;3.03;;;;;;;;;;5036543;28;20207;-77
2021/12/08 09:38:18;;;;;;;6.22;3.08;;;;;;;;;;5054361;28;20316;-78
2021/12/08 09:40:48;;;;;;;4.80;2.97;;;;;;;;;;5054021;28;20541;-78
2021/12/08 09:43:23;;;;;;;6.95;2.28;;;;;;;;;;5054310;28;20169;-78
2021/12/08 09:45:52;;;;;;;8.63;2.95;;;;;;;;;;5054396;28;20174;-79
2021/12/08 09:48:18;;;;;;;6.55;2.10;;;;;;;;;;5054272;28;20175;-81
2021/12/08 09:50:45;;;;;;;14.07;4.30;;;;;;;;;;5053877;28;20218;-79
2021/12/08 09:53:12;;;;;;;5.18;3.10;;;;;;;;;;5054285;28;20191;-79
2021/12/08 09:55:38;;;;;;;6.43;3.10;;;;;;;;;;5054143;28;20266;-79
2021/12/08 09:58:06;;;;;;;5.78;2.58;;;;;;;;;;5054087;28;20567;-79
2021/12/08 10:00:34;;;;;;;9.93;3.05;;;;;;;;;;5053416;28;20185;-79
2021/12/08 10:03:01;;;;;;;8.30;2.30;;;;;;;;;;5053929;28;20176;-79
2021/12/08 10:05:30;;;;;;;5.20;2.20;;;;;;;;;;5054186;28;20523;-77
2021/12/08 10:07:58;;;;;;;7.35;1.92;;;;;;;;;;5053868;28;20177;-79
2021/12/08 10:10:24;;;;;;;6.88;2.50;;;;;;;;;;5053131;28;20206;-80
2021/12/08 10:12:50;;;;;;;9.32;3.15;;;;;;;;;;5053947;28;20177;-79
2021/12/08 10:15:18;;;;;;;9.95;2.42;;;;;;;;;;5053994;28;20205;-77
2021/12/08 10:17:45;;;;;;;9.75;2.90;;;;;;;;;;5053813;28;20173;-79
2021/12/08 10:20:15;;;;;;;4.43;1.70;;;;;;;;;;5048554;28;20208;-78
2021/12/08 10:22:43;;;;;;;4.50;1.90;;;;;;;;;;5073620;28;20174;-77
2021/12/08 10:25:20;;;;;;;8.38;2.60;;;;;;;;;;5073692;28;20657;-78
2021/12/08 10:28:22;;;;;;;5.05;2.58;;;;;;;;;;5073581;28;20176;-77
2021/12/08 10:31:01;;;;;;;7.72;1.55;;;;;;;;;;4972541;28;20209;-77
2021/12/08 10:33:37;;;;;;;9.20;2.95;;;;;;;;;;5062814;28;20186;-78
2021/12/08 10:36:17;;;;;;;3.45;1.70;;;;;;;;;;5073601;28;20550;-78
2021/12/08 10:38:43;;;;;;;11.80;3.00;;;;;;;;;;5073421;28;20176;-78
2021/12/08 10:41:09;;;;;;;6.35;3.30;;;;;;;;;;5073154;28;20321;-78
2021/12/08 10:43:35;;;;;;;7.93;2.00;;;;;;;;;;5073147;28;20196;-78
2021/12/08 10:46:03;;;;;;;4.75;3.25;;;;;;;;;;5073337;28;20559;-79
2021/12/08 10:48:36;;;;;;;6.85;2.08;;;;;;;;;;5073168;28;20227;-78
2021/12/08 10:56:37;;;;;;;9.25;2.22;;;;;;;;;;5057972;28;20630;-77
2021/12/08 10:59:03;;;;;;;2.90;1.83;;;;;;;;;;5073159;28;20225;-77
2021/12/08 11:01:30;;;;;;;5.43;1.92;;;;;;;;;;5072801;28;20192;-76
2021/12/08 11:04:01;;;;;;;6.47;1.70;;;;;;;;;;5073049;28;20226;-77
2021/12/08 11:06:31;;;;;;;4.70;1.60;;;;;;;;;;5072976;28;20172;-77
2021/12/08 11:08:57;;;;;;;7.78;1.42;;;;;;;;;;5073090;28;20179;-77
2021/12/08 11:11:25;;;;;;;5.53;1.83;;;;;;;;;;5072198;28;20268;-77
2021/12/08 11:13:53;;;;;;;6.22;1.90;;;;;;;;;;5073040;28;20176;-78
2021/12/08 11:16:24;;;;;;;4.88;1.50;;;;;;;;;;5072936;28;20216;-77
2021/12/08 11:18:57;;;;;;;2.55;1.20;;;;;;;;;;5072976;28;20225;-77
2021/12/08 11:21:29;;;;;;;4.18;1.30;;;;;;;;;;5072650;28;20212;-77
2021/12/08 11:23:59;;;;;;;5.22;1.50;;;;;;;;;;5072957;28;20161;-77
2021/12/08 11:26:27;;;;;;;6.53;2.03;;;;;;;;;;5073220;28;20172;-78
2021/12/08 11:28:58;;;;;;;3.70;1.42;;;;;;;;;;5072976;28;20180;-78
2021/12/08 11:31:25;;;;;;;2.03;1.33;;;;;;;;;;5072727;28;20553;-77
2021/12/08 11:33:59;;;;;;;5.15;1.75;;;;;;;;;;5073050;28;20192;-77
2021/12/08 11:36:27;;;;;;;7.63;1.73;;;;;;;;;;5072878;28;20203;-77
2021/12/08 11:38:53;;;;;;;6.03;1.55;;;;;;;;;;5072720;28;20573;-79
2021/12/08 11:41:21;;;;;;;5.07;1.50;;;;;;;;;;5072321;28;20228;-77
2021/12/08 11:43:55;;;;;;;6.32;1.27;;;;;;;;;;5072683;28;20169;-77
2021/12/08 11:46:22;;;;;;;6.50;1.50;;;;;;;;;;5072809;28;20183;-78
2021/12/08 11:48:57;;;;;;;4.03;1.20;;;;;;;;;;5072691;28;20685;-79
2021/12/08 11:51:24;;;;;;;7.72;1.45;;;;;;;;;;5074229;28;20192;-77
2021/12/08 11:53:50;;;;;;;5.45;1.40;;;;;;;;;;5076577;28;20184;-78
2021/12/08 11:56:31;;;;;;;4.43;1.60;;;;;;;;;;5076420;28;20660;-77
2021/12/08 11:58:57;;;;;;;5.55;2.65;;;;;;;;;;5076200;28;20624;-78
2021/12/08 12:01:23;;;;;;;3.65;1.08;;;;;;;;;;5075826;28;20635;-77
2021/12/08 12:03:50;;;;;;;3.92;1.10;;;;;;;;;;5070705;28;20188;-78
2021/12/08 12:06:16;;;;;;;5.40;1.70;;;;;;;;;;5058365;28;20868;-78
2021/12/08 12:08:42;;;;;;;3.28;1.27;;;;;;;;;;5054381;28;20189;-80
2021/12/08 12:11:08;;;;;;;2.85;1.60;;;;;;;;;;5053390;28;20221;-79
2021/12/08 12:13:34;;;;;;;3.97;1.67;;;;;;;;;;5036579;28;20292;-78
2021/12/08 12:16:00;;;;;;;4.47;1.30;;;;;;;;;;5054794;28;20228;-78
2021/12/08 12:18:31;;;;;;;6.32;1.33;;;;;;;;;;5035987;28;20288;-79
2021/12/08 12:21:12;;;;;;;3.42;1.35;;;;;;;;;;5036310;28;20201;-79
2021/12/08 12:23:55;;;;;;;4.43;1.10;;;;;;;;;;5054422;28;20190;-80
2021/12/08 12:26:40;;;;;;;5.97;1.98;;;;;;;;;;5053642;28;20189;-80
2021/12/08 12:29:16;;;;;;;3.75;1.52;;;;;;;;;;5054103;28;20238;-81
2021/12/08 12:32:00;;;;;;;5.15;1.52;;;;;;;;;;5054099;28;20748;-81
2021/12/08 12:34:29;;;;;;;5.10;1.50;;;;;;;;;;5059544;28;20263;-80
2021/12/08 12:36:56;;;;;;;3.92;1.50;;;;;;;;;;5055912;28;20224;-81
2021/12/08 12:39:24;;;;;;;3.35;1.10;;;;;;;;;;5053667;28;20188;-82
2021/12/08 12:42:02;;;;;;;3.25;1.40;;;;;;;;;;5053790;28;20688;-81
2021/12/08 12:44:29;;;;;;;6.88;1.55;;;;;;;;;;5053729;28;20555;-83
2021/12/08 12:47:28;;;;;;;4.72;1.27;;;;;;;;;;5054419;28;20182;-80
2021/12/08 12:50:00;;;;;;;8.82;1.80;;;;;;;;;;5052992;28;20228;-80
2021/12/08 12:52:49;;;;;;;7.15;1.85;;;;;;;;;;5054051;28;20234;-81
2021/12/08 12:55:18;;;;;;;3.88;1.42;;;;;;;;;;5039549;28;20220;-81
2021/12/08 12:58:03;;;;;;;2.58;1.17;;;;;;;;;;5053626;28;20185;-81
2021/12/08 13:00:31;;;;;;;8.68;1.45;;;;;;;;;;5054002;28;20235;-81
2021/12/08 13:02:57;;;;;;;3.20;1.10;;;;;;;;;;5052562;28;20205;-78
2021/12/08 13:05:23;;;;;;;4.25;1.13;;;;;;;;;;5061205;28;20258;-79
2021/12/08 13:07:57;;;;;;;3.95;1.08;;;;;;;;;;5072470;28;20194;-78
2021/12/08 13:10:29;;;;;;;5.55;0.80;;;;;;;;;;5054610;28;20216;-78
2021/12/08 13:13:09;;;;;;;5.22;1.20;;;;;;;;;;5073365;28;20231;-78
2021/12/08 13:15:35;;;;;;;4.38;1.50;;;;;;;;;;5072888;28;20656;-77
2021/12/08 13:18:01;;;;;;;5.55;1.23;;;;;;;;;;5072692;28;20177;-78
2021/12/08 13:20:29;;;;;;;4.68;1.30;;;;;;;;;;5054648;28;20250;-77
2021/12/08 13:22:59;;;;;;;5.18;1.42;;;;;;;;;;5073476;28;20331;-78
2021/12/08 13:25:48;;;;;;;2.22;1.20;;;;;;;;;;5072275;28;20180;-79
2021/12/08 13:28:33;;;;;;;2.80;1.10;;;;;;;;;;5073504;28;20730;-79
2021/12/08 13:31:15;;;;;;;5.80;1.05;;;;;;;;;;5072801;28;20195;-79
2021/12/08 13:33:44;;;;;;;4.63;1.30;;;;;;;;;;5066254;28;20189;-78
2021/12/08 13:36:23;;;;;;;1.83;1.00;;;;;;;;;;5053151;28;20232;-79
2021/12/08 13:38:58;;;;;;;2.70;1.10;;;;;;;;;;5034479;28;20860;-79
2021/12/08 13:41:26;;;;;;;6.22;1.50;;;;;;;;;;5052817;28;20203;-80
2021/12/08 13:43:52;;;;;;;6.13;1.50;;;;;;;;;;5052669;28;20264;-78
2021/12/08 13:46:37;;;;;;;6.22;1.40;;;;;;;;;;5052288;28;20251;-77
2021/12/08 13:49:18;;;;;;;4.45;1.10;;;;;;;;;;5052520;28;20185;-77
2021/12/08 13:52:02;;;;;;;4.35;1.60;;;;;;;;;;5052221;28;20205;-80
2021/12/08 13:54:32;;;;;;;4.75;1.13;;;;;;;;;;5052232;28;20594;-78
2021/12/08 13:56:58;;;;;;;3.83;1.38;;;;;;;;;;5052235;28;20209;-79
2021/12/08 13:59:43;;;;;;;5.60;1.52;;;;;;;;;;5052579;28;20196;-78
2021/12/08 14:02:19;;;;;;;5.93;1.30;;;;;;;;;;5051575;28;20207;-78
2021/12/08 14:04:45;;;;;;;3.15;1.20;;;;;;;;;;5052499;28;20728;-79
2021/12/08 14:07:18;;;;;;;5.22;1.52;;;;;;;;;;5064919;28;20665;-78
2021/12/08 14:09:44;;;;;;;2.88;1.10;;;;;;;;;;5052834;28;20188;-79
2021/12/08 14:12:10;;;;;;;3.42;1.10;;;;;;;;;;5072280;28;20243;-78
2021/12/08 14:14:37;;;;;;;2.65;1.13;;;;;;;;;;5071763;28;20199;-78
2021/12/08 14:17:03;;;;;;;3.95;1.10;;;;;;;;;;5071213;28;20208;-78
2021/12/08 14:19:41;;;;;;;1.92;1.20;;;;;;;;;;5072058;28;20671;-79
2021/12/08 14:22:07;;;;;;;3.03;1.30;;;;;;;;;;5072238;28;20627;-78
2021/12/08 14:24:33;;;;;;;6.23;1.17;;;;;;;;;;5071148;28;20288;-80
2021/12/08 14:26:59;;;;;;;2.05;1.00;;;;;;;;;;5072360;28;20428;-78
2021/12/08 14:29:25;;;;;;;3.95;1.30;;;;;;;;;;5070936;28;20196;-78
2021/12/08 14:31:52;;;;;;;5.53;1.20;;;;;;;;;;5053301;28;20697;-78
2021/12/08 14:34:22;;;;;;;5.75;1.35;;;;;;;;;;5071873;28;20290;-81
2021/12/08 14:36:51;;;;;;;3.10;1.30;;;;;;;;;;5071509;28;20209;-76
2021/12/08 14:39:20;;;;;;;4.25;0.93;;;;;;;;;;5070120;28;20691;-79
2021/12/08 14:41:51;;;;;;;2.05;1.05;;;;;;;;;;5053980;28;20703;-78
2021/12/08 14:44:20;;;;;;;5.38;1.42;;;;;;;;;;5071336;28;21005;-77
2021/12/08 14:46:47;;;;;;;5.45;1.13;;;;;;;;;;5041620;28;20211;-77
2021/12/08 14:49:17;;;;;;;3.70;1.30;;;;;;;;;;5068146;28;20231;-78
2021/12/08 14:51:43;;;;;;;2.00;0.90;;;;;;;;;;5060379;28;20280;-77
2021/12/08 14:54:14;;;;;;;4.45;1.60;;;;;;;;;;5060657;28;20218;-77
2021/12/08 14:56:40;;;;;;;7.05;1.40;;;;;;;;;;5051071;28;20216;-78
2021/12/08 14:59:07;;;;;;;5.50;1.83;;;;;;;;;;5051390;28;20185;-79
2021/12/08 15:01:33;;;;;;;5.90;2.05;;;;;;;;;;5050855;28;20197;-78
2021/12/08 15:04:00;;;;;;;3.08;1.25;;;;;;;;;;5033846;28;20188;-77
2021/12/08 15:06:26;;;;;;;4.05;1.73;;;;;;;;;;5051408;28;20188;-77
2021/12/08 15:08:52;;;;;;;3.85;1.60;;;;;;;;;;5060480;28;20268;-77
2021/12/08 15:11:20;;;;;;;3.30;2.03;;;;;;;;;;5070559;28;20239;-77
2021/12/08 15:13:46;;;;;;;3.97;2.03;;;;;;;;;;5071572;28;20185;-78
2021/12/08 15:16:15;;;;;;;9.07;1.38;;;;;;;;;;5070311;28;20216;-77
2021/12/08 15:18:41;;;;;;;4.05;1.27;;;;;;;;;;5071448;28;20203;-77
2021/12/08 15:21:11;;;;;;;5.75;1.20;;;;;;;;;;5070806;28;20192;-77
2021/12/08 15:31:32;;;;;;;2.55;1.05;;;;;;;;;;5887274;22;20231;-78
2021/12/08 15:33:59;;;;;;;1.42;0.93;;;;;;;;;;5097171;28;20207;-78
2021/12/08 15:36:29;;;;;;;4.72;1.45;;;;;;;;;;5096918;28;20204;-79
2021/12/08 15:38:57;;;;;;;5.15;1.90;;;;;;;;;;5078864;28;20263;-77
2021/12/08 15:41:25;;;;;;;3.28;2.03;;;;;;;;;;5096693;28;20241;-78
2021/12/08 15:44:07;;;;;;;2.75;1.52;;;;;;;;;;5096801;28;20292;-78
2021/12/08 15:46:33;;;;;;;5.25;1.83;;;;;;;;;;5078616;28;20179;-77
2021/12/08 15:49:00;;;;;;;7.60;2.30;;;;;;;;;;5078623;28;20182;-78
2021/12/08 15:51:31;;;;;;;3.78;2.08;;;;;;;;;;5096462;28;20697;-79